Greenwood, Indiana
Current Conditions -  °F | °C
As of 12:54 PM on Sunday 21 Dec 2014 (Local Time) from KIND Reporting Station
Broken Clouds Broken Clouds  
Wind Chill: 28°   Ceiling: 24000
Heat Index: 34°   Visibility: 8mi
Dew Point: 26°   Wind: 7mph
Humidity: 73%   Direction: 100°E
Pressure: 30.2"   Gusts: NA
Location:  39.61°N, 86.11°W
Report Text: KIND 211754Z 10006KT 8SM BKN240 01/M03 A3020 RMK AO2 SLP236 I6000 T00111033 10011 21067 58026
Loading
Personal Weather Stations






























Interactive Weather Map New forecast layout! Learn more

10-Day Weather Forecast

Advertisements
Track Severe Weather on mobile